Time;durP1;ratioP1;P1;durP2;ratioP2;P2;SDS_P1;SDS_P2;PMS_P1;PMS_P2;Temp;Humidity;BMP_temperature;BMP_pressure;BME280_temperature;BME280_humidity;BME280_pressure;Samples;Min_cycle;Max_cycle;Signal;HPM_P1;HPM_P2
2023/02/24 00:01:25;;;;;;;;;;;;;;;-142.41;100.00;64449.00;5133918;27;20251;-67
2023/02/24 00:03:55;;;;;;;;;;;;;;;-142.41;100.00;64449.00;5133576;27;20023;-69
2023/02/24 00:06:21;;;;;;;;;;;;;;;-142.41;100.00;64449.00;5133617;27;19911;-67
2023/02/24 00:08:46;;;;;;;;;;;;;;;-142.41;100.00;64449.00;5133676;27;19918;-69
2023/02/24 00:11:12;;;;;;;;;;;;;;;-142.41;100.00;64449.00;5133261;27;20362;-67
2023/02/24 00:13:45;;;;;;;;;;;;;;;-142.41;100.00;64449.00;5132231;27;19915;-68
2023/02/24 00:16:11;;;;;;;;;;;;;;;-142.41;100.00;64449.00;5133570;28;19965;-66
2023/02/24 00:18:37;;;;;;;;;;;;;;;-142.41;100.00;64449.00;5133518;28;19962;-67
2023/02/24 00:21:07;;;;;;;;;;;;;;;-142.41;100.00;64449.00;5133458;28;20391;-68
2023/02/24 00:23:34;;;;;;;;;;;;;;;-142.41;100.00;64449.00;5133359;28;20259;-66
2023/02/24 00:25:59;;;;;;;;;;;;;;;-142.41;100.00;64449.00;5133353;28;19956;-66
2023/02/24 00:28:30;;;;;;;;;;;;;;;-142.41;100.00;64449.00;5133091;28;19915;-69
2023/02/24 00:31:22;;;;;;;;;;;;;;;-142.41;100.00;64449.00;5133272;28;19961;-66
2023/02/24 00:33:49;;;;;;;;;;;;;;;-142.41;100.00;64449.00;5133234;28;19915;-66
2023/02/24 00:36:16;;;;;;;;;;;;;;;-142.41;100.00;64449.00;5133112;28;19937;-67
2023/02/24 00:38:45;;;;;;;;;;;;;;;-142.41;100.00;64449.00;5133556;28;19919;-66
2023/02/24 00:41:15;;;;;;;;;;;;;;;-142.41;100.00;64449.00;5134901;28;19918;-66
2023/02/24 00:43:45;;;;;;;;;;;;;;;-142.41;100.00;64449.00;5133175;28;20018;-67
2023/02/24 00:46:16;;;;;;;;;;;;;;;-142.41;100.00;64449.00;5133326;28;19911;-65
2023/02/24 00:48:44;;;;;;;;;;;;;;;-142.41;100.00;64449.00;5133044;28;19911;-68
2023/02/24 00:51:10;;;;;;;;;;;;;;;-142.41;100.00;64449.00;5132900;28;19912;-68
2023/02/24 00:53:37;;;;;;;;;;;;;;;-142.41;100.00;64449.00;5133230;28;19925;-67
2023/02/24 00:56:05;;;;;;;;;;;;;;;-142.41;100.00;64449.00;5133154;28;19923;-68
2023/02/24 00:58:31;;;;;;;;;;;;;;;-142.41;100.00;64449.00;5133133;28;19911;-67
2023/02/24 01:00:57;;;;;;;;;;;;;;;-142.41;100.00;64449.00;5133300;28;20504;-68
2023/02/24 01:03:22;;;;;;;;;;;;;;;-142.41;100.00;64449.00;5133058;28;20424;-67
2023/02/24 01:05:47;;;;;;;;;;;;;;;-142.41;100.00;64449.00;5133040;28;19915;-68
2023/02/24 01:08:20;;;;;;;;;;;;;;;-142.41;100.00;64449.00;5133213;28;19911;-67
2023/02/24 01:12:00;;;;;;;;;;;;;;;-142.41;100.00;64449.00;5133172;28;19918;-67
2023/02/24 01:13:38;;;;;;;;;;;;;;;-142.41;100.00;64449.00;5133067;28;19911;-68
2023/02/24 01:16:04;;;;;;;;;;;;;;;-142.41;100.00;64449.00;5133189;28;20363;-68
2023/02/24 01:18:29;;;;;;;;;;;;;;;-142.41;100.00;64449.00;5133310;28;19956;-68
2023/02/24 01:20:57;;;;;;;;;;;;;;;-142.41;100.00;64449.00;5132905;28;20405;-67
2023/02/24 01:23:23;;;;;;;;;;;;;;;-142.41;100.00;64449.00;5133300;27;19930;-68
2023/02/24 01:25:48;;;;;;;;;;;;;;;-142.41;100.00;64449.00;5136509;27;19918;-68
2023/02/24 01:28:15;;;;;;;;;;;;;;;-142.41;100.00;64449.00;5136546;27;19915;-66
2023/02/24 01:30:42;;;;;;;;;;;;;;;-142.41;100.00;64449.00;5136241;27;20335;-68
2023/02/24 01:33:11;;;;;;;;;;;;;;;-142.41;100.00;64449.00;5136462;27;19911;-67
2023/02/24 01:35:39;;;;;;;;;;;;;;;-142.41;100.00;64449.00;5117857;27;20355;-67
2023/02/24 01:38:04;;;;;;;;;;;;;;;-142.41;100.00;64449.00;5136352;27;19918;-67
2023/02/24 01:40:29;;;;;;;;;;;;;;;-142.41;100.00;64449.00;5136222;27;19912;-68
2023/02/24 01:42:54;;;;;;;;;;;;;;;-142.41;100.00;64449.00;5136192;27;20415;-65
2023/02/24 01:45:24;;;;;;;;;;;;;;;-142.41;100.00;64449.00;5135906;27;19912;-67
2023/02/24 01:47:50;;;;;;;;;;;;;;;-142.41;100.00;64449.00;5136155;27;19912;-67
2023/02/24 01:50:20;;;;;;;;;;;;;;;-142.41;100.00;64449.00;5136072;27;19911;-67
2023/02/24 01:52:46;;;;;;;;;;;;;;;-142.41;100.00;64449.00;5136063;27;19954;-67
2023/02/24 01:55:32;;;;;;;;;;;;;;;-142.41;100.00;64449.00;5136185;27;19918;-67
2023/02/24 01:57:59;;;;;;;;;;;;;;;-142.41;100.00;64449.00;5136379;27;19958;-67
2023/02/24 02:00:36;;;;;;;;;;;;;;;-142.41;100.00;64449.00;5135922;27;19912;-66
2023/02/24 02:03:06;;;;;;;;;;;;;;;-142.41;100.00;64449.00;5135963;27;19912;-68
2023/02/24 02:05:32;;;;;;;;;;;;;;;-142.41;100.00;64449.00;5135665;27;19972;-68
2023/02/24 02:07:58;;;;;;;;;;;;;;;-142.41;100.00;64449.00;5135609;27;20405;-65
2023/02/24 02:10:25;;;;;;;;;;;;;;;-142.41;100.00;64449.00;5136019;27;19911;-66
2023/02/24 02:12:50;;;;;;;;;;;;;;;-142.41;100.00;64449.00;5135719;27;19912;-69
2023/02/24 02:15:19;;;;;;;;;;;;;;;-142.41;100.00;64449.00;5135798;27;20311;-68
2023/02/24 02:17:47;;;;;;;;;;;;;;;-142.41;100.00;64449.00;5135525;27;19911;-67
2023/02/24 02:20:30;;;;;;;;;;;;;;;-142.41;100.00;64449.00;5135502;27;19957;-67
2023/02/24 02:23:14;;;;;;;;;;;;;;;-142.41;100.00;64449.00;5135259;27;19956;-66
2023/02/24 02:25:42;;;;;;;;;;;;;;;-142.41;100.00;64449.00;5135643;27;19973;-66
2023/02/24 02:28:32;;;;;;;;;;;;;;;-142.41;100.00;64449.00;5116869;27;19916;-66
2023/02/24 02:31:06;;;;;;;;;;;;;;;-142.41;100.00;64449.00;5135228;27;19920;-67
2023/02/24 02:33:46;;;;;;;;;;;;;;;-142.41;100.00;64449.00;5135307;27;19911;-66
2023/02/24 02:36:15;;;;;;;;;;;;;;;-142.41;100.00;64449.00;5134062;27;19997;-67
2023/02/24 02:38:52;;;;;;;;;;;;;;;-142.41;100.00;64449.00;5135327;27;19911;-68
2023/02/24 02:41:20;;;;;;;;;;;;;;;-142.41;100.00;64449.00;5134943;27;19922;-67
2023/02/24 02:43:55;;;;;;;;;;;;;;;-142.41;100.00;64449.00;5135025;27;19911;-67
2023/02/24 02:46:34;;;;;;;;;;;;;;;-142.41;100.00;64449.00;5135075;27;19972;-66
2023/02/24 02:49:11;;;;;;;;;;;;;;;-142.41;100.00;64449.00;5135239;27;20288;-67
2023/02/24 02:51:43;;;;;;;;;;;;;;;-142.41;100.00;64449.00;5134835;27;19911;-66
2023/02/24 02:54:21;;;;;;;;;;;;;;;-142.41;100.00;64449.00;5134749;27;19911;-66
2023/02/24 02:57:16;;;;;;;;;;;;;;;-142.41;100.00;64449.00;5134807;27;19911;-65
2023/02/24 02:59:48;;;;;;;;;;;;;;;-142.41;100.00;64449.00;5116348;27;19911;-66
2023/02/24 03:02:13;;;;;;;;;;;;;;;-142.41;100.00;64449.00;5134579;27;19979;-65
2023/02/24 03:04:51;;;;;;;;;;;;;;;-142.41;100.00;64449.00;5134377;27;20398;-67
2023/02/24 03:07:18;;;;;;;;;;;;;;;-142.41;100.00;64449.00;5134505;27;20307;-67
2023/02/24 03:09:48;;;;;;;;;;;;;;;-142.41;100.00;64449.00;5134411;27;19911;-67
2023/02/24 03:12:16;;;;;;;;;;;;;;;-142.41;100.00;64449.00;5134235;27;20363;-67
2023/02/24 03:14:49;;;;;;;;;;;;;;;-142.41;100.00;64449.00;5134082;27;19912;-68
2023/02/24 03:17:20;;;;;;;;;;;;;;;-142.41;100.00;64449.00;5134462;27;19912;-67
2023/02/24 03:19:48;;;;;;;;;;;;;;;-142.41;100.00;64449.00;5134661;27;19915;-66
2023/02/24 03:22:20;;;;;;;;;;;;;;;-142.41;100.00;64449.00;5134219;27;19918;-67
2023/02/24 03:24:46;;;;;;;;;;;;;;;-142.41;100.00;64449.00;5134180;27;20313;-66
2023/02/24 03:27:18;;;;;;;;;;;;;;;-142.41;100.00;64449.00;5134143;27;19915;-66
2023/02/24 03:29:51;;;;;;;;;;;;;;;-142.41;100.00;64449.00;5134393;27;19915;-68
2023/02/24 03:32:22;;;;;;;;;;;;;;;-142.41;100.00;64449.00;5134180;27;19915;-67
2023/02/24 03:34:55;;;;;;;;;;;;;;;-142.41;100.00;64449.00;5134133;27;19943;-67
2023/02/24 03:37:25;;;;;;;;;;;;;;;-142.41;100.00;64449.00;5133865;27;19916;-68
2023/02/24 03:39:52;;;;;;;;;;;;;;;-142.41;100.00;64449.00;5134058;27;19911;-66
2023/02/24 03:42:19;;;;;;;;;;;;;;;-142.41;100.00;64449.00;5134085;27;19912;-67
2023/02/24 03:44:45;;;;;;;;;;;;;;;-142.41;100.00;64449.00;5134043;27;19911;-67
2023/02/24 03:47:12;;;;;;;;;;;;;;;-142.41;100.00;64449.00;5133612;27;19911;-67
2023/02/24 03:49:37;;;;;;;;;;;;;;;-142.41;100.00;64449.00;5134312;27;19932;-67
2023/02/24 03:52:04;;;;;;;;;;;;;;;-142.41;100.00;64449.00;5139625;27;19919;-66
2023/02/24 03:54:48;;;;;;;;;;;;;;;-142.41;100.00;64449.00;5136354;27;19985;-65
2023/02/24 03:57:17;;;;;;;;;;;;;;;-142.41;100.00;64449.00;5134823;27;20380;-67
2023/02/24 04:00:33;;;;;;;;;;;;;;;-142.41;100.00;64449.00;5133882;27;19917;-67
2023/02/24 04:03:17;;;;;;;;;;;;;;;-142.41;100.00;64449.00;5115066;27;19923;-67
2023/02/24 04:05:49;;;;;;;;;;;;;;;-142.41;100.00;64449.00;5133466;27;19911;-65
2023/02/24 04:08:15;;;;;;;;;;;;;;;-142.41;100.00;64449.00;5133328;27;19911;-66
2023/02/24 04:10:51;;;;;;;;;;;;;;;-142.41;100.00;64449.00;5133532;27;20068;-67
2023/02/24 04:13:17;;;;;;;;;;;;;;;-142.41;100.00;64449.00;5133392;27;19995;-65
2023/02/24 04:15:49;;;;;;;;;;;;;;;-142.41;100.00;64449.00;5134357;27;19911;-67
2023/02/24 04:18:17;;;;;;;;;;;;;;;-142.41;100.00;64449.00;5116279;28;19911;-68
2023/02/24 04:20:44;;;;;;;;;;;;;;;-142.41;100.00;64449.00;5133724;28;19911;-67
2023/02/24 04:23:15;;;;;;;;;;;;;;;-142.41;100.00;64449.00;5134190;28;20014;-67
2023/02/24 04:25:42;;;;;;;;;;;;;;;-142.41;100.00;64449.00;5133470;28;19916;-69
2023/02/24 04:28:12;;;;;;;;;;;;;;;-142.41;100.00;64449.00;5133951;28;19996;-67
2023/02/24 04:30:39;;;;;;;;;;;;;;;-142.41;100.00;64449.00;5134163;28;19920;-66
2023/02/24 04:33:05;;;;;;;;;;;;;;;-142.41;100.00;64449.00;5135000;28;19980;-67
2023/02/24 04:35:33;;;;;;;;;;;;;;;-142.41;100.00;64449.00;5133921;28;19911;-67
2023/02/24 04:37:58;;;;;;;;;;;;;;;-142.41;100.00;64449.00;5133565;28;19966;-67
2023/02/24 04:40:26;;;;;;;;;;;;;;;-142.41;100.00;64449.00;5133284;28;20358;-66
2023/02/24 04:42:52;;;;;;;;;;;;;;;-142.41;100.00;64449.00;5133831;28;19956;-67
2023/02/24 04:45:20;;;;;;;;;;;;;;;-142.41;100.00;64449.00;5133389;28;19919;-68
2023/02/24 04:47:50;;;;;;;;;;;;;;;-142.41;100.00;64449.00;5133356;28;20263;-68
2023/02/24 04:50:22;;;;;;;;;;;;;;;-142.41;100.00;64449.00;5133243;28;19911;-66
2023/02/24 04:52:49;;;;;;;;;;;;;;;-142.41;100.00;64449.00;5133109;28;19911;-66
2023/02/24 04:55:16;;;;;;;;;;;;;;;-142.41;100.00;64449.00;5133221;28;19911;-67
2023/02/24 04:57:44;;;;;;;;;;;;;;;-142.41;100.00;64449.00;5133286;27;20382;-66
2023/02/24 05:00:19;;;;;;;;;;;;;;;-142.41;100.00;64449.00;5118236;27;19942;-66
2023/02/24 05:02:44;;;;;;;;;;;;;;;-142.41;100.00;64449.00;5137340;27;19918;-66
2023/02/24 05:05:10;;;;;;;;;;;;;;;-142.41;100.00;64449.00;5118785;27;20345;-67
2023/02/24 05:07:35;;;;;;;;;;;;;;;-142.41;100.00;64449.00;5137406;27;19919;-67
2023/02/24 05:10:01;;;;;;;;;;;;;;;-142.41;100.00;64449.00;5137319;27;19911;-67
2023/02/24 05:12:28;;;;;;;;;;;;;;;-142.41;100.00;64449.00;5137177;27;19912;-71
2023/02/24 05:14:53;;;;;;;;;;;;;;;-142.41;100.00;64449.00;5137157;27;19919;-67
2023/02/24 05:17:19;;;;;;;;;;;;;;;-142.41;100.00;64449.00;5138089;27;19911;-67
2023/02/24 05:22:28;;;;;;;;;;;;;;;-142.41;100.00;64449.00;5137608;27;19918;-66
2023/02/24 05:24:55;;;;;;;;;;;;;;;-142.41;100.00;64449.00;5118661;27;20316;-66
2023/02/24 05:27:21;;;;;;;;;;;;;;;-142.41;100.00;64449.00;5118575;27;20368;-68
2023/02/24 05:29:47;;;;;;;;;;;;;;;-142.41;100.00;64449.00;5118261;27;19915;-66
2023/02/24 05:32:15;;;;;;;;;;;;;;;-142.41;100.00;64449.00;5136572;27;19916;-68
2023/02/24 05:34:41;;;;;;;;;;;;;;;-142.41;100.00;64449.00;5118636;27;19921;-66
2023/02/24 05:37:09;;;;;;;;;;;;;;;-142.41;100.00;64449.00;5118449;27;19958;-67
2023/02/24 05:39:40;;;;;;;;;;;;;;;-142.41;100.00;64449.00;5136400;27;19961;-65
2023/02/24 05:42:05;;;;;;;;;;;;;;;-142.41;100.00;64449.00;5100958;27;19950;-69
2023/02/24 05:44:31;;;;;;;;;;;;;;;-142.41;100.00;64449.00;5136260;27;20362;-66
2023/02/24 05:46:59;;;;;;;;;;;;;;;-142.41;100.00;64449.00;5135970;27;19912;-68
2023/02/24 05:49:28;;;;;;;;;;;;;;;-142.41;100.00;64449.00;5136327;27;19918;-68
2023/02/24 05:51:55;;;;;;;;;;;;;;;-142.41;100.00;64449.00;5136520;27;19988;-68
2023/02/24 05:54:22;;;;;;;;;;;;;;;-142.41;100.00;64449.00;5118190;27;19932;-67
2023/02/24 05:56:48;;;;;;;;;;;;;;;-142.41;100.00;64449.00;5136295;27;20362;-66
2023/02/24 05:59:20;;;;;;;;;;;;;;;-142.41;100.00;64449.00;5136637;27;19911;-67
2023/02/24 06:01:46;;;;;;;;;;;;;;;-142.41;100.00;64449.00;5142562;27;19911;-67
2023/02/24 06:04:19;;;;;;;;;;;;;;;-142.41;100.00;64449.00;5139751;27;19911;-67
2023/02/24 06:06:45;;;;;;;;;;;;;;;-142.41;100.00;64449.00;5118667;27;20278;-68
2023/02/24 06:09:12;;;;;;;;;;;;;;;-142.41;100.00;64449.00;5136081;27;20274;-67
2023/02/24 06:11:39;;;;;;;;;;;;;;;-142.41;100.00;64449.00;5135921;27;19918;-68
2023/02/24 06:14:07;;;;;;;;;;;;;;;-142.41;100.00;64449.00;5136310;27;19919;-69
2023/02/24 06:16:34;;;;;;;;;;;;;;;-142.41;100.00;64449.00;5118546;27;19918;-66
2023/02/24 06:19:00;;;;;;;;;;;;;;;-142.41;100.00;64449.00;5136638;27;20318;-70
2023/02/24 06:21:28;;;;;;;;;;;;;;;-142.41;100.00;64449.00;5135715;27;19947;-67
2023/02/24 06:23:54;;;;;;;;;;;;;;;-142.41;100.00;64449.00;5135443;27;20305;-68
2023/02/24 06:26:20;;;;;;;;;;;;;;;-142.41;100.00;64449.00;5135740;27;19957;-68
2023/02/24 06:28:48;;;;;;;;;;;;;;;-142.41;100.00;64449.00;5135321;27;19927;-68
2023/02/24 06:31:14;;;;;;;;;;;;;;;-142.41;100.00;64449.00;5135754;27;20278;-67
2023/02/24 06:33:40;;;;;;;;;;;;;;;-142.41;100.00;64449.00;5135408;27;19912;-69
2023/02/24 06:36:06;;;;;;;;;;;;;;;-142.41;100.00;64449.00;5135486;27;19911;-67
2023/02/24 06:38:36;;;;;;;;;;;;;;;-142.41;100.00;64449.00;5135609;27;19912;-67
2023/02/24 06:41:03;;;;;;;;;;;;;;;-142.41;100.00;64449.00;5134921;27;19969;-65
2023/02/24 06:43:31;;;;;;;;;;;;;;;-142.41;100.00;64449.00;5135403;27;19923;-66
2023/02/24 06:45:56;;;;;;;;;;;;;;;-142.41;100.00;64449.00;5116608;27;19911;-67
2023/02/24 06:48:21;;;;;;;;;;;;;;;-142.41;100.00;64449.00;5135007;27;20365;-67
2023/02/24 06:50:48;;;;;;;;;;;;;;;-142.41;100.00;64449.00;5135324;27;19915;-67
2023/02/24 06:53:15;;;;;;;;;;;;;;;-142.41;100.00;64449.00;5135108;27;19911;-68
2023/02/24 06:55:47;;;;;;;;;;;;;;;-142.41;100.00;64449.00;5134573;27;20285;-67
2023/02/24 06:58:17;;;;;;;;;;;;;;;-142.41;100.00;64449.00;5135199;27;19911;-70
2023/02/24 07:00:49;;;;;;;;;;;;;;;-142.41;100.00;64449.00;5134972;27;20278;-68
2023/02/24 07:03:16;;;;;;;;;;;;;;;-142.41;100.00;64449.00;5134840;27;19950;-66
2023/02/24 07:05:48;;;;;;;;;;;;;;;-142.41;100.00;64449.00;5134566;27;20079;-67
2023/02/24 07:08:18;;;;;;;;;;;;;;;-142.41;100.00;64449.00;5134539;27;19912;-70
2023/02/24 07:10:43;;;;;;;;;;;;;;;-142.41;100.00;64449.00;5134719;27;19962;-68
2023/02/24 07:13:09;;;;;;;;;;;;;;;-142.41;100.00;64449.00;5135017;27;19946;-70
2023/02/24 07:15:35;;;;;;;;;;;;;;;-142.41;100.00;64449.00;5135161;27;20354;-69
2023/02/24 07:18:01;;;;;;;;;;;;;;;-142.41;100.00;64449.00;5116182;27;19919;-69
2023/02/24 07:20:28;;;;;;;;;;;;;;;-142.41;100.00;64449.00;5134529;27;20389;-71
2023/02/24 07:22:54;;;;;;;;;;;;;;;-142.41;100.00;64449.00;5133912;27;19911;-67
2023/02/24 07:25:32;;;;;;;;;;;;;;;-142.41;100.00;64449.00;5135085;27;19911;-68
2023/02/24 07:28:01;;;;;;;;;;;;;;;-142.41;100.00;64449.00;5134530;27;19912;-68
2023/02/24 07:30:53;;;;;;;;;;;;;;;-142.41;100.00;64449.00;5134887;27;20314;-68
2023/02/24 07:33:19;;;;;;;;;;;;;;;-142.41;100.00;64449.00;5134201;27;19930;-68
2023/02/24 07:35:50;;;;;;;;;;;;;;;-142.41;100.00;64449.00;5134841;27;19911;-69
2023/02/24 07:38:21;;;;;;;;;;;;;;;-142.41;100.00;64449.00;5134417;27;19911;-68
2023/02/24 07:40:48;;;;;;;;;;;;;;;-142.41;100.00;64449.00;5134319;27;19912;-67
2023/02/24 07:43:15;;;;;;;;;;;;;;;-142.41;100.00;64449.00;5134837;27;19941;-67
2023/02/24 07:45:41;;;;;;;;;;;;;;;-142.41;100.00;64449.00;5137857;27;19911;-68
2023/02/24 07:48:06;;;;;;;;;;;;;;;-142.41;100.00;64449.00;5133773;27;19911;-71
2023/02/24 07:50:32;;;;;;;;;;;;;;;-142.41;100.00;64449.00;5115545;27;19911;-68
2023/02/24 07:52:58;;;;;;;;;;;;;;;-142.41;100.00;64449.00;5133803;27;19922;-68
2023/02/24 07:55:24;;;;;;;;;;;;;;;-142.41;100.00;64449.00;5133815;27;19933;-68
2023/02/24 07:57:50;;;;;;;;;;;;;;;-142.41;100.00;64449.00;5133599;27;19950;-68
2023/02/24 08:00:19;;;;;;;;;;;;;;;-142.41;100.00;64449.00;5133400;27;20359;-68
2023/02/24 08:02:45;;;;;;;;;;;;;;;-142.41;100.00;64449.00;5114384;27;19984;-69
2023/02/24 08:05:11;;;;;;;;;;;;;;;-142.41;100.00;64449.00;5133486;27;19911;-68
2023/02/24 08:07:36;;;;;;;;;;;;;;;-142.41;100.00;64449.00;5133467;27;19911;-67
2023/02/24 08:10:22;;;;;;;;;;;;;;;-142.41;100.00;64449.00;5133653;27;19919;-68
2023/02/24 08:12:53;;;;;;;;;;;;;;;-142.41;100.00;64449.00;5133312;27;19983;-69
2023/02/24 08:15:22;;;;;;;;;;;;;;;-142.41;100.00;64449.00;5133671;27;19916;-68
2023/02/24 08:17:48;;;;;;;;;;;;;;;-142.41;100.00;64449.00;5133777;27;19938;-68
2023/02/24 08:22:42;;;;;;;;;;;;;;;-142.41;100.00;64449.00;5133609;28;20014;-68
2023/02/24 08:25:09;;;;;;;;;;;;;;;-142.41;100.00;64449.00;5133751;28;20021;-68
2023/02/24 08:27:42;;;;;;;;;;;;;;;-142.41;100.00;64449.00;5081673;28;19972;-68
2023/02/24 08:30:22;;;;;;;;;;;;;;;-142.41;100.00;64449.00;5092669;28;19970;-68
2023/02/24 08:32:55;;;;;;;;;;;;;;;-142.41;100.00;64449.00;5090639;28;19967;-66
2023/02/24 08:35:22;;;;;;;;;;;;;;;-142.41;100.00;64449.00;5095663;28;20010;-68
2023/02/24 08:37:47;;;;;;;;;;;;;;;-142.41;100.00;64449.00;5094992;28;19944;-69
2023/02/24 08:42:57;;;;;;;;;;;;;;;-142.41;100.00;64449.00;5095222;28;20049;-68
2023/02/24 08:45:27;;;;;;;;;;;;;;;-142.41;100.00;64449.00;5094809;28;20398;-68
2023/02/24 08:47:59;;;;;;;;;;;;;;;-142.41;100.00;64449.00;5095114;28;19912;-71
2023/02/24 08:50:29;;;;;;;;;;;;;;;-142.41;100.00;64449.00;5094783;28;19912;-68
2023/02/24 08:52:56;;;;;;;;;;;;;;;-142.41;100.00;64449.00;5094849;28;19923;-68
2023/02/24 08:55:22;;;;;;;;;;;;;;;-142.41;100.00;64449.00;5094823;28;19935;-68
2023/02/24 08:57:50;;;;;;;;;;;;;;;-142.41;100.00;64449.00;5094536;28;20371;-69
2023/02/24 09:00:26;;;;;;;;;;;;;;;-142.41;100.00;64449.00;5094826;28;19916;-69
2023/02/24 09:02:55;;;;;;;;;;;;;;;-142.41;100.00;64449.00;5094665;28;19920;-73
2023/02/24 09:05:23;;;;;;;;;;;;;;;-142.41;100.00;64449.00;5093173;28;19913;-66
2023/02/24 09:07:53;;;;;;;;;;;;;;;-142.41;100.00;64449.00;5094630;28;19936;-69
2023/02/24 09:10:19;;;;;;;;;;;;;;;-142.41;100.00;64449.00;5094386;28;19922;-67
2023/02/24 09:12:45;;;;;;;;;;;;;;;-142.41;100.00;64449.00;5076339;28;20386;-68
2023/02/24 09:15:14;;;;;;;;;;;;;;;-142.41;100.00;64449.00;5094239;28;19912;-70
2023/02/24 09:23:07;;;;;;;;;;;;;;;-142.41;100.00;64449.00;5094309;28;20006;-69
2023/02/24 09:25:39;;;;;;;;;;;;;;;-142.41;100.00;64449.00;5094356;28;19958;-67
2023/02/24 09:28:18;;;;;;;;;;;;;;;-142.41;100.00;64449.00;5006000;27;2635459;-70
2023/02/24 09:30:52;;;;;;;;;;;;;;;-142.41;100.00;64449.00;5136733;27;19922;-73
2023/02/24 09:33:26;;;;;;;;;;;;;;;-142.41;100.00;64449.00;5136361;27;19916;-75
2023/02/24 09:36:09;;;;;;;;;;;;;;;-142.41;100.00;64449.00;5136198;27;19911;-68
2023/02/24 09:41:30;;;;;;;;;;;;;;;-142.41;100.00;64449.00;5126477;27;19911;-65
2023/02/24 09:44:16;;;;;;;;;;;;;;;-142.41;100.00;64449.00;5115085;28;20437;-65
2023/02/24 09:46:52;;;;;;;;;;;;;;;-142.41;100.00;64449.00;5114955;28;19959;-67
2023/02/24 09:49:22;;;;;;;;;;;;;;;-142.41;100.00;64449.00;5114837;28;19912;-66
2023/02/24 09:51:59;;;;;;;;;;;;;;;-142.41;100.00;64449.00;5115523;28;19916;-63
2023/02/24 09:54:29;;;;;;;;;;;;;;;-142.41;100.00;64449.00;5115181;28;19956;-64
2023/02/24 09:57:15;;;;;;;;;;;;;;;-142.41;100.00;64449.00;5115134;28;19911;-64
2023/02/24 10:00:23;;;;;;;;;;;;;;;-142.41;100.00;64449.00;5115043;28;19911;-63
2023/02/24 10:03:02;;;;;;;;;;;;;;;-142.41;100.00;64449.00;5114801;28;19912;-63
2023/02/24 10:05:46;;;;;;;;;;;;;;;-142.41;100.00;64449.00;5114997;28;19919;-65
2023/02/24 10:08:16;;;;;;;;;;;;;;;-142.41;100.00;64449.00;5115100;28;19957;-66
2023/02/24 10:10:59;;;;;;;;;;;;;;;-142.41;100.00;64449.00;5115164;28;19919;-66
2023/02/24 10:13:31;;;;;;;;;;;;;;;-142.41;100.00;64449.00;5096720;28;19943;-66
2023/02/24 10:15:59;;;;;;;;;;;;;;;-142.41;100.00;64449.00;5114778;28;20382;-66
2023/02/24 10:18:26;;;;;;;;;;;;;;;-142.41;100.00;64449.00;5114578;28;20355;-65
2023/02/24 10:20:56;;;;;;;;;;;;;;;-142.41;100.00;64449.00;5114900;28;20377;-65
2023/02/24 10:23:31;;;;;;;;;;;;;;;-142.41;100.00;64449.00;5114717;28;20376;-69
2023/02/24 10:26:20;;;;;;;;;;;;;;;-142.41;100.00;64449.00;5114702;28;19912;-66
2023/02/24 10:28:54;;;;;;;;;;;;;;;-142.41;100.00;64449.00;5114706;28;19923;-69
2023/02/24 10:31:34;;;;;;;;;;;;;;;-142.41;100.00;64449.00;5115028;28;20264;-68
2023/02/24 10:34:05;;;;;;;;;;;;;;;-142.41;100.00;64449.00;5115203;28;20040;-70
2023/02/24 10:36:34;;;;;;;;;;;;;;;-142.41;100.00;64449.00;5114256;28;19919;-68
2023/02/24 10:39:14;;;;;;;;;;;;;;;-142.41;100.00;64449.00;5095897;28;19919;-69
2023/02/24 10:42:14;;;;;;;;;;;;;;;-142.41;100.00;64449.00;5096248;28;19912;-71
2023/02/24 10:44:50;;;;;;;;;;;;;;;-142.41;100.00;64449.00;5114333;28;19964;-68
2023/02/24 10:47:18;;;;;;;;;;;;;;;-142.41;100.00;64449.00;5124702;27;19915;-70
2023/02/24 10:49:57;;;;;;;;;;;;;;;-142.41;100.00;64449.00;5134733;27;20394;-69
2023/02/24 10:52:36;;;;;;;;;;;;;;;-142.41;100.00;64449.00;5134745;27;19919;-69
2023/02/24 10:55:23;;;;;;;;;;;;;;;-142.41;100.00;64449.00;5134686;27;20446;-70
2023/02/24 10:57:54;;;;;;;;;;;;;;;-142.41;100.00;64449.00;5133708;27;20292;-69
2023/02/24 11:00:50;;;;;;;;;;;;;;;-142.41;100.00;64449.00;5120662;27;19911;-65
2023/02/24 11:03:24;;;;;;;;;;;;;;;-142.41;100.00;64449.00;5134480;27;19912;-70
2023/02/24 11:06:07;;;;;;;;;;;;;;;-142.41;100.00;64449.00;5134471;27;19918;-69
2023/02/24 11:08:42;;;;;;;;;;;;;;;-142.41;100.00;64449.00;5116378;27;19912;-70
2023/02/24 11:11:18;;;;;;;;;;;;;;;-142.41;100.00;64449.00;5134621;27;20013;-69
2023/02/24 11:19:26;;;;;;;;;;;;;;;-142.41;100.00;64449.00;5134583;27;19958;-66
2023/02/24 11:21:54;;;;;;;;;;;;;;;-142.41;100.00;64449.00;5115630;27;19915;-66
2023/02/24 11:24:22;;;;;;;;;;;;;;;-142.41;100.00;64449.00;5133835;27;19912;-64
2023/02/24 11:26:48;;;;;;;;;;;;;;;-142.41;100.00;64449.00;5120136;27;19919;-67
2023/02/24 11:29:34;;;;;;;;;;;;;;;-142.41;100.00;64449.00;5113028;28;19915;-65
2023/02/24 11:32:00;;;;;;;;;;;;;;;-142.41;100.00;64449.00;5127773;27;19922;-65
2023/02/24 11:34:48;;;;;;;;;;;;;;;-142.41;100.00;64449.00;5130307;27;19911;-68
2023/02/24 11:37:33;;;;;;;;;;;;;;;-142.41;100.00;64449.00;5133788;27;20297;-67
2023/02/24 11:40:01;;;;;;;;;;;;;;;-142.41;100.00;64449.00;5134463;27;19915;-66
2023/02/24 11:42:30;;;;;;;;;;;;;;;-142.41;100.00;64449.00;5133991;27;19920;-66
2023/02/24 11:45:07;;;;;;;;;;;;;;;-142.41;100.00;64449.00;5134287;27;19911;-69
2023/02/24 11:47:44;;;;;;;;;;;;;;;-142.41;100.00;64449.00;5113851;27;19916;-67
2023/02/24 11:50:12;;;;;;;;;;;;;;;-142.41;100.00;64449.00;5134132;27;19911;-68
2023/02/24 11:52:45;;;;;;;;;;;;;;;-142.41;100.00;64449.00;5110677;27;19951;-70
2023/02/24 11:55:22;;;;;;;;;;;;;;;-142.41;100.00;64449.00;5101625;27;20431;-67
2023/02/24 11:57:50;;;;;;;;;;;;;;;-142.41;100.00;64449.00;5112179;27;20270;-70
2023/02/24 12:00:18;;;;;;;;;;;;;;;-142.41;100.00;64449.00;5133553;27;20018;-67
2023/02/24 12:02:58;;;;;;;;;;;;;;;-142.41;100.00;64449.00;5134463;27;19955;-66
2023/02/24 12:05:25;;;;;;;;;;;;;;;-142.41;100.00;64449.00;5133395;27;20010;-65
2023/02/24 12:08:17;;;;;;;;;;;;;;;-142.41;100.00;64449.00;5133257;27;20030;-67
2023/02/24 12:10:52;;;;;;;;;;;;;;;-142.41;100.00;64449.00;5129193;27;19911;-66
2023/02/24 12:13:26;;;;;;;;;;;;;;;-142.41;100.00;64449.00;5133165;27;19912;-68
2023/02/24 12:15:58;;;;;;;;;;;;;;;-142.41;100.00;64449.00;5133169;27;19956;-69
2023/02/24 12:18:23;;;;;;;;;;;;;;;-142.41;100.00;64449.00;5114926;28;19918;-66
2023/02/24 12:20:51;;;;;;;;;;;;;;;-142.41;100.00;64449.00;5133056;28;20006;-66
2023/02/24 12:23:27;;;;;;;;;;;;;;;-142.41;100.00;64449.00;5133643;28;19911;-65
2023/02/24 12:25:57;;;;;;;;;;;;;;;-142.41;100.00;64449.00;5133095;28;19912;-68
2023/02/24 12:28:32;;;;;;;;;;;;;;;-142.41;100.00;64449.00;5133022;28;19922;-72
2023/02/24 12:31:18;;;;;;;;;;;;;;;-142.41;100.00;64449.00;5133115;28;20135;-69
2023/02/24 12:33:48;;;;;;;;;;;;;;;-142.41;100.00;64449.00;5133583;28;20320;-68
2023/02/24 12:36:32;;;;;;;;;;;;;;;-142.41;100.00;64449.00;5114885;28;20259;-70
2023/02/24 12:39:05;;;;;;;;;;;;;;;-142.41;100.00;64449.00;5132894;28;20259;-67
2023/02/24 12:41:37;;;;;;;;;;;;;;;-142.41;100.00;64449.00;5132983;28;19912;-68
2023/02/24 12:44:11;;;;;;;;;;;;;;;-142.41;100.00;64449.00;5132544;28;19912;-67
2023/02/24 12:46:39;;;;;;;;;;;;;;;-142.41;100.00;64449.00;5133152;28;19955;-66
2023/02/24 12:49:10;;;;;;;;;;;;;;;-142.41;100.00;64449.00;5133013;28;19916;-66
2023/02/24 12:51:52;;;;;;;;;;;;;;;-142.41;100.00;64449.00;5133186;28;19911;-67
2023/02/24 12:54:20;;;;;;;;;;;;;;;-142.41;100.00;64449.00;5133115;28;19911;-66
2023/02/24 12:56:51;;;;;;;;;;;;;;;-142.41;100.00;64449.00;5132991;28;20387;-65
2023/02/24 12:59:19;;;;;;;;;;;;;;;-142.41;100.00;64449.00;5132757;28;19912;-67